< < Back
Terminal Aerodrome Forecast


Current Version              Previous Versions:   1  2  3  4  5  6  7  8  9  

Terminal Aerodrome Forecast

601
FTUS44 KHUN 051120
TAFHSV
TAF
KHSV 051120Z 0512/0612 VRB03KT 5SM BR SKC
     FM051300 10004KT P6SM SCT250
     FM060800 VRB03KT 4SM BR SKC=

Latest METAR

386
SAUS80 KWBC 051400 RRB
MTRHSV
METAR KHSV 051353Z 12008KT 10SM FEW250 27/21 A3009 RMK AO2 SLP182
T02670206


USA.gov is the U.S. government's official web portal to all federal, state and local government web resources and services.